ESGR/KVB METAR and TAF weather

Enter ICAO airport designator
Station Type Date Time Source
ESGR METAR 2021/09/25 11:50 UTC NOAA

ESGR 251150Z AUTO 25008KT 220V290 9999 NCD 16/05 Q1008


Station Type Date Time Source
ESGR Decoded METAR 2021/09/25 11:50 UTC NOAA

Skovde Flygplats, Sweden (ESGR) 58-27N 013-58E 105M
Sep 25, 2021 - 07:50 AM EDT / 2021.09.25 1150 UTC
Wind: from the WSW (250 degrees) at 9 MPH (8 KT) (direction variable):0
Visibility: greater than 7 mile(s):0
Temperature: 60 F (16 C)
Dew Point: 41 F (5 C)
Relative Humidity: 47%
Pressure (altimeter): 29.77 in. Hg (1008 hPa)
ob: ESGR 251150Z AUTO 25008KT 220V290 9999 NCD 16/05 Q1008
cycle: 12

Station Type Date Time Source
ESGR TAF 2009/06/28 04:50 UTC NOAA

METAR ESGR 280450Z AUTO VRB02KT 9999NDV NCD 17/12 Q1020

Example: see airport list